Frederick, MD (21701)

5:30 PM EDT on June 27, 2017 (GMT -0400)
Monocacy Village Firehouse 725 | | Change Station

Elev 304 ft 39.42 °N, 77.40 °W | Updated 10 seconds ago

Scattered Clouds
Scattered Clouds
78.3 °F
Feels Like 78 °F
N
2.5
Wind Variable Wind from NW
Gusts 4.9 mph

Today
High -- | Low -- °F
--% Chance of Precip.
Yesterday
High -- | Low -- °F
Precip. -- in
Pressure 30.02 in
Visibility 10.0 miles
Clouds Scattered Clouds 7500 ft
Scattered Clouds 10000 ft
Heat Index 78 °F
Dew Point 44 °F
Humidity 30%
Rainfall 0.00 in
Snow Depth Not available.
5:44 AM 8:40 PM
Waxing Crescent, 19% visible
METAR KFDK 272053Z 30013KT 10SM SCT075 SCT100 26/06 A3002
Pressure 30.02 in
Visibility 10.0 miles
Clouds Scattered Clouds 7500 ft
Scattered Clouds 10000 ft
Heat Index 78 °F
Dew Point 44 °F
Humidity 30%
Rainfall 0.00 in
Snow Depth Not available.
5:44 AM 8:40 PM
Waxing Crescent, 19% visible
METAR KFDK 272053Z 30013KT 10SM SCT075 SCT100 26/06 A3002

Get Severe Weather Alerts

Thanks for signing up!

Be on the lookout for a verification email in your inbox.

You'll start receiving the daily forecast at 6 AM.

×

10-Day Weather Forecast

Almanac

Astronomy

Jun. 27, 2017 Rise Set
Actual Time
Civil Twilight
Nautical Twilight
Astronomical Twilight
Moon
Length of Visible Light
Length of Day
Tomorrow will be .
, % of the Moon is Illuminated

Today's Extremes

State Highs State Lows

Community

WunderPhotos

Category 6

Welcome to Category 6. This is the collective home for Weather Underground's featured writeups by Dr. Jeff Masters (right), Bob Henson (left), Chris Burt, and other regular contributors.

Nearby

Air Quality

  Air Quality AQ Index Pollutant
Not available.

Snow Depth

Station Depth Elevation

Earthquake Activity

City Distance Mag. Time & Date
Minimum magnitude displayed is 2.5.

Coastal Water Temperatures

Place Temperature

Stations

Nearby Weather Stations

Station Location Temp. Windchill Dew Point Humidity Wind Precip. Elev Updated Type
                   

Watches & Warnings

There are currently no watches in effect.